This is the latest recevied weather packets stored in our database for station/object KB9HUO. If no packets are shown the sender has not sent any weather packets the latest 10 day(s).
| Time | Temp. | Humidity | Pressure | Rain* | Wind** | Luminosity | Snow |
|---|---|---|---|---|---|---|---|
| 1777231952 | 22.78° C | 61% | 1016 hPa | 0 mm | - | 118 W/m² | - |
| 1777231650 | 22.78° C | 59% | 1015.9 hPa | 0 mm | - | 103 W/m² | - |
| 1777231346 | 22.78° C | 61% | 1016 hPa | 0 mm | - | 95 W/m² | - |
| 1777231042 | 22.78° C | 61% | 1016.3 hPa | 0 mm | - | 633 W/m² | - |
| 1777230739 | 22.78° C | 59% | 1016.2 hPa | 0 mm | - | 646 W/m² | - |
| 1777230438 | 22.78° C | 59% | 1016.4 hPa | 0 mm | - | 689 W/m² | - |
| 1777230135 | 22.78° C | 64% | 1016.4 hPa | 0 mm | - | 698 W/m² | - |
| 1777229833 | 21.67° C | 67% | 1016.4 hPa | 0 mm | - | 700 W/m² | - |
| 1777229529 | 21.67° C | 61% | 1016.4 hPa | 0 mm | - | 492 W/m² | - |
| 1777229226 | 22.22° C | 61% | 1016.6 hPa | 0 mm | - | 713 W/m² | - |
| 1777228923 | 21.67° C | 66% | 1016.4 hPa | 0 mm | - | 731 W/m² | - |
| 1777228618 | 22.22° C | 61% | 1016.6 hPa | 0 mm | - | 418 W/m² | - |
| 1777228315 | 21.67° C | 63% | 1016.5 hPa | 0 mm | - | 738 W/m² | - |
| 1777228010 | 21.67° C | 60% | 1016.6 hPa | 0 mm | - | 749 W/m² | - |
| 1777227704 | 21.67° C | 62% | 1016.5 hPa | 0 mm | - | 742 W/m² | - |
| 1777227401 | 21.67° C | 64% | 1016.7 hPa | 0 mm | - | 744 W/m² | - |
| 1777227098 | 21.67° C | 65% | 1016.9 hPa | 0 mm | - | 747 W/m² | - |
| 1777226794 | 21.67° C | 65% | 1017 hPa | 0 mm | - | 770 W/m² | - |
| 1777226492 | 21.11° C | 66% | 1017 hPa | 0 mm | - | 779 W/m² | - |
| 1777226189 | 21.67° C | 65% | 1017 hPa | 0 mm | - | 770 W/m² | - |
| 1777225885 | 21.11° C | 71% | 1016.9 hPa | 0 mm | - | 768 W/m² | - |
| 1777225581 | 21.11° C | 68% | 1017.2 hPa | 0 mm | - | 787 W/m² | - |
| 1777225278 | 20.56° C | 68% | 1017.2 hPa | 0 mm | - | 788 W/m² | - |
| 1777224975 | 21.11° C | 67% | 1017.2 hPa | 0 mm | - | 783 W/m² | - |
| 1777224672 | 21.11° C | 66% | 1017.3 hPa | 0 mm | - | 793 W/m² | - |
* Rain latest hour (hover to see other rain measurements)
** Current wind speed in m/s (hover to see current wind gust speed)